createdAt,value
2022-09-10T00:02:13.507Z,6.95
2022-09-10T00:04:40.464Z,10.43
2022-09-10T00:07:07.242Z,10.57
2022-09-10T00:09:34.263Z,9.35
2022-09-10T00:12:01.176Z,8.00
2022-09-10T00:14:27.945Z,10.82
2022-09-10T00:16:55.261Z,9.88
2022-09-10T00:19:22.516Z,11.70
2022-09-10T00:21:50.823Z,11.07
2022-09-10T00:24:17.700Z,7.43
2022-09-10T00:26:45.558Z,10.93
2022-09-10T00:29:15.997Z,9.30
2022-09-10T00:31:43.601Z,5.57
2022-09-10T00:34:12.442Z,7.50
2022-09-10T00:36:41.830Z,12.23
2022-09-10T00:39:15.335Z,9.23
2022-09-10T00:41:45.056Z,9.88
2022-09-10T00:44:39.996Z,13.70
2022-09-10T00:47:22.436Z,9.80
2022-09-10T00:49:55.896Z,13.18
2022-09-10T00:52:23.121Z,10.20
2022-09-10T00:54:50.199Z,9.32
2022-09-10T00:57:24.520Z,11.00
2022-09-10T00:59:56.194Z,8.25
2022-09-10T01:02:23.116Z,6.68
2022-09-10T01:04:50.751Z,11.60
2022-09-10T01:07:19.020Z,10.93
2022-09-10T01:09:46.173Z,19.85
2022-09-10T01:12:22.378Z,15.60
2022-09-10T01:15:30.893Z,11.02
2022-09-10T01:18:22.304Z,11.73
2022-09-10T01:21:08.428Z,15.80
2022-09-10T01:23:53.878Z,12.52
2022-09-10T01:26:36.704Z,14.77
2022-09-10T01:29:06.379Z,19.33
2022-09-10T01:32:07.065Z,13.20
2022-09-10T01:34:42.697Z,15.43
2022-09-10T01:37:18.430Z,13.60
2022-09-10T01:39:47.488Z,10.80
2022-09-10T01:42:15.488Z,11.38
2022-09-10T01:44:48.021Z,13.77
2022-09-10T01:47:35.366Z,12.18
2022-09-10T01:50:39.072Z,16.33
2022-09-10T01:53:51.519Z,10.65
2022-09-10T01:56:48.480Z,18.13
2022-09-10T01:59:34.589Z,12.50
2022-09-10T02:02:10.004Z,15.00
2022-09-10T02:04:38.026Z,12.10
2022-09-10T02:07:07.054Z,18.02
2022-09-10T02:09:34.287Z,9.00
2022-09-10T02:12:02.394Z,9.70
2022-09-10T02:14:29.170Z,11.20
2022-09-10T02:17:01.302Z,7.53
2022-09-10T02:19:28.276Z,12.80
2022-09-10T02:21:57.577Z,13.68
2022-09-10T02:24:24.500Z,11.50
2022-09-10T02:26:51.327Z,14.43
2022-09-10T02:29:19.485Z,12.65
2022-09-10T02:31:47.652Z,12.73
2022-09-10T02:34:16.190Z,19.88
2022-09-10T02:36:43.692Z,11.90
2022-09-10T02:39:10.557Z,13.30
2022-09-10T02:41:41.030Z,10.07
2022-09-10T02:44:08.756Z,13.15
2022-09-10T02:46:35.536Z,12.23
2022-09-10T02:49:03.313Z,13.05
2022-09-10T02:51:30.277Z,10.25
2022-09-10T02:53:57.097Z,10.35
2022-09-10T02:56:23.920Z,7.90
2022-09-10T02:58:51.176Z,7.50
2022-09-10T03:01:21.436Z,8.23
2022-09-10T03:03:55.099Z,8.88
2022-09-10T03:06:23.501Z,7.50
2022-09-10T03:08:51.305Z,8.35
2022-09-10T03:11:18.970Z,9.15
2022-09-10T03:13:46.556Z,8.73
2022-09-10T03:16:13.856Z,8.05
2022-09-10T03:18:41.264Z,7.72
2022-09-10T03:21:18.529Z,10.75
2022-09-10T03:23:48.353Z,6.05
2022-09-10T03:26:17.893Z,7.40
2022-09-10T03:28:45.947Z,8.05
2022-09-10T03:31:13.830Z,6.80
2022-09-10T03:33:41.228Z,6.90
2022-09-10T03:36:09.936Z,6.18
2022-09-10T03:38:36.749Z,7.45
2022-09-10T03:41:03.670Z,6.63
2022-09-10T03:43:30.990Z,7.40
2022-09-10T03:45:57.864Z,9.43
2022-09-10T03:48:24.641Z,6.55
2022-09-10T03:50:51.628Z,9.23
2022-09-10T03:53:19.889Z,6.22
2022-09-10T03:55:48.566Z,7.53
2022-09-10T03:58:16.670Z,7.57
2022-09-10T04:00:44.109Z,7.95
2022-09-10T04:03:14.620Z,8.80
2022-09-10T04:05:45.641Z,8.35
2022-09-10T04:08:13.875Z,7.35
2022-09-10T04:10:42.245Z,6.85
2022-09-10T04:13:09.613Z,4.88
2022-09-10T04:15:37.608Z,6.70
2022-09-10T04:18:06.243Z,9.20
2022-09-10T04:20:34.503Z,4.97
2022-09-10T04:23:01.715Z,9.07
2022-09-10T04:25:28.505Z,5.40
2022-09-10T04:27:55.376Z,9.32
2022-09-10T04:30:22.354Z,7.75
2022-09-10T04:32:50.476Z,6.88
2022-09-10T04:35:17.832Z,7.78
2022-09-10T04:37:44.565Z,6.30
2022-09-10T04:40:11.859Z,5.68
2022-09-10T04:42:39.292Z,5.22
2022-09-10T04:45:07.010Z,6.95
2022-09-10T04:47:34.454Z,10.20
2022-09-10T04:50:01.581Z,6.68
2022-09-10T04:52:29.050Z,6.53
2022-09-10T04:54:56.089Z,5.78
2022-09-10T04:57:23.774Z,4.80
2022-09-10T04:59:50.513Z,13.45
2022-09-10T05:02:17.332Z,7.90
2022-09-10T05:04:44.433Z,10.98
2022-09-10T05:07:11.284Z,10.32
2022-09-10T05:09:38.009Z,13.05
2022-09-10T05:12:05.237Z,15.25
2022-09-10T05:14:32.606Z,15.35
2022-09-10T05:17:00.007Z,8.38
2022-09-10T05:19:27.292Z,10.65
2022-09-10T05:21:54.773Z,9.43
2022-09-10T05:24:21.885Z,9.65
2022-09-10T05:26:48.865Z,6.57
2022-09-10T05:29:16.697Z,8.75
2022-09-10T05:31:43.904Z,7.95
2022-09-10T05:34:11.176Z,4.85
2022-09-10T05:36:38.007Z,11.73
2022-09-10T05:39:05.069Z,6.63
2022-09-10T05:41:32.407Z,5.05
2022-09-10T05:43:59.844Z,6.03
2022-09-10T05:46:28.542Z,5.53
2022-09-10T05:48:55.468Z,6.53
2022-09-10T05:51:22.462Z,5.90
2022-09-10T05:53:50.054Z,9.30
2022-09-10T05:56:17.225Z,8.60
2022-09-10T05:58:45.714Z,5.85
2022-09-10T06:01:12.565Z,6.75
2022-09-10T06:03:40.661Z,5.22
2022-09-10T06:06:07.975Z,6.40
2022-09-10T06:08:35.847Z,8.82
2022-09-10T06:11:06.151Z,6.55
2022-09-10T06:13:34.595Z,6.40
2022-09-10T06:16:01.972Z,7.25
2022-09-10T06:18:30.286Z,7.68
2022-09-10T06:21:28.166Z,5.45
2022-09-10T06:23:55.737Z,6.47
2022-09-10T06:26:22.922Z,8.07
2022-09-10T06:29:30.492Z,6.50
2022-09-10T06:31:57.432Z,5.13
2022-09-10T06:34:24.224Z,8.30
2022-09-10T06:36:51.288Z,6.18
2022-09-10T06:39:18.378Z,8.60
2022-09-10T06:41:52.627Z,10.25
2022-09-10T06:44:19.540Z,7.10
2022-09-10T06:49:33.570Z,8.88
2022-09-10T06:52:01.583Z,9.07
2022-09-10T06:54:28.281Z,6.90
2022-09-10T06:56:55.172Z,6.10
2022-09-10T06:59:21.933Z,7.00
2022-09-10T07:01:49.701Z,7.20
2022-09-10T07:04:16.652Z,8.23
2022-09-10T07:06:43.499Z,8.13
2022-09-10T07:09:10.653Z,7.65
2022-09-10T07:11:41.326Z,6.88
2022-09-10T07:14:12.776Z,9.82
2022-09-10T07:16:41.803Z,4.82
2022-09-10T07:19:13.438Z,4.90
2022-09-10T07:21:40.280Z,5.80
2022-09-10T07:24:07.435Z,7.28
2022-09-10T07:26:34.356Z,8.75
2022-09-10T07:29:01.092Z,5.15
2022-09-10T07:31:30.801Z,4.55
2022-09-10T07:33:58.379Z,5.35
2022-09-10T07:36:28.336Z,5.72
2022-09-10T07:38:57.960Z,7.88
2022-09-10T07:41:28.796Z,7.45
2022-09-10T07:43:55.749Z,11.18
2022-09-10T07:46:25.952Z,6.00
2022-09-10T07:49:00.373Z,4.30
2022-09-10T07:51:30.455Z,7.75
2022-09-10T07:53:58.596Z,5.28
2022-09-10T07:56:25.589Z,7.47
2022-09-10T07:58:54.388Z,6.05
2022-09-10T08:01:21.627Z,6.43
2022-09-10T08:03:48.759Z,7.57
2022-09-10T08:06:16.462Z,7.13
2022-09-10T08:08:43.564Z,5.28
2022-09-10T08:11:17.673Z,12.35
2022-09-10T08:13:50.307Z,12.27
2022-09-10T08:16:23.345Z,5.97
2022-09-10T08:18:51.487Z,5.70
2022-09-10T08:21:20.358Z,4.72
2022-09-10T08:23:52.218Z,5.43
2022-09-10T08:26:18.977Z,5.03
2022-09-10T08:28:45.964Z,3.88
2022-09-10T08:31:13.819Z,8.10
2022-09-10T08:33:40.805Z,5.63
2022-09-10T08:36:10.634Z,6.68
2022-09-10T08:38:40.181Z,6.85
2022-09-10T08:41:18.822Z,8.70
2022-09-10T08:44:04.599Z,5.67
2022-09-10T08:46:48.821Z,6.60
2022-09-10T08:49:38.264Z,5.97
2022-09-10T08:52:15.916Z,7.85
2022-09-10T08:55:06.112Z,6.85
2022-09-10T08:57:35.359Z,5.50
2022-09-10T09:02:48.286Z,5.03
2022-09-10T09:05:22.912Z,5.53
2022-09-10T09:07:51.756Z,9.32
2022-09-10T09:10:20.629Z,6.65
2022-09-10T09:13:02.361Z,4.55
2022-09-10T09:15:48.022Z,5.05
2022-09-10T09:18:20.245Z,4.53
2022-09-10T09:20:51.701Z,4.80
2022-09-10T09:23:28.319Z,4.82
2022-09-10T09:26:04.215Z,6.97
2022-09-10T09:28:46.381Z,4.38
2022-09-10T09:31:17.336Z,4.80
2022-09-10T09:33:46.277Z,7.07
2022-09-10T09:36:18.763Z,6.28
2022-09-10T09:38:49.169Z,3.78
2022-09-10T09:41:23.954Z,6.00
2022-09-10T09:44:01.682Z,4.18
2022-09-10T09:46:28.534Z,4.38
2022-09-10T09:49:00.209Z,6.93
2022-09-10T09:51:35.621Z,6.25
2022-09-10T09:54:56.650Z,4.80
2022-09-10T09:57:15.905Z,4.68
2022-09-10T09:59:43.898Z,7.05
2022-09-10T10:02:12.999Z,8.33
2022-09-10T10:04:54.185Z,6.05
2022-09-10T10:07:32.528Z,9.18
2022-09-10T10:10:07.862Z,6.60
2022-09-10T10:12:49.240Z,6.20
2022-09-10T10:15:42.103Z,5.82
2022-09-10T10:18:29.049Z,5.85
2022-09-10T10:21:18.973Z,7.47
2022-09-10T10:23:46.581Z,7.38
2022-09-10T10:26:21.181Z,8.70
2022-09-10T10:28:50.716Z,9.20
2022-09-10T10:31:18.973Z,7.38
2022-09-10T10:34:05.329Z,13.13
2022-09-10T10:36:54.449Z,10.48
2022-09-10T10:39:39.666Z,10.57
2022-09-10T10:42:15.848Z,9.98
2022-09-10T10:45:13.477Z,17.85
2022-09-10T10:48:10.156Z,8.90
2022-09-10T10:50:55.930Z,10.98
2022-09-10T10:53:55.918Z,8.75
2022-09-10T10:56:32.093Z,7.93
2022-09-10T10:59:17.582Z,10.38
2022-09-10T11:01:54.131Z,10.18
2022-09-10T11:04:42.944Z,13.57
2022-09-10T11:10:01.765Z,6.38
2022-09-10T11:12:35.072Z,4.13
2022-09-10T11:15:22.093Z,7.53
2022-09-10T11:18:24.322Z,9.40
2022-09-10T11:21:00.266Z,6.25
2022-09-10T11:23:45.519Z,4.53
2022-09-10T11:26:22.054Z,5.78
2022-09-10T11:29:04.136Z,3.33
2022-09-10T11:31:34.011Z,3.15
2022-09-10T11:34:11.211Z,3.05
2022-09-10T11:36:56.259Z,3.15
2022-09-10T11:39:29.181Z,1.90
2022-09-10T11:41:59.622Z,1.92
2022-09-10T11:44:46.128Z,2.30
2022-09-10T11:47:24.127Z,2.42
2022-09-10T11:50:11.395Z,2.88
2022-09-10T11:52:38.537Z,5.53
2022-09-10T11:55:08.624Z,4.63
2022-09-10T11:57:48.587Z,2.40
2022-09-10T12:00:17.769Z,2.50
2022-09-10T12:03:18.482Z,3.42
2022-09-10T12:05:51.194Z,1.75
2022-09-10T12:08:49.869Z,2.17
2022-09-10T12:11:35.595Z,4.65
2022-09-10T12:14:18.871Z,2.50
2022-09-10T12:16:49.330Z,1.52
2022-09-10T12:19:26.805Z,3.50
2022-09-10T12:22:02.206Z,1.53
2022-09-10T12:24:32.692Z,3.00
2022-09-10T12:27:05.339Z,2.35
2022-09-10T12:32:38.602Z,2.28
2022-09-10T12:35:31.440Z,2.25
2022-09-10T12:38:35.956Z,4.00
2022-09-10T12:41:04.232Z,1.48
2022-09-10T12:46:10.609Z,3.47
2022-09-10T12:48:41.823Z,2.65
2022-09-10T12:51:21.157Z,2.90
2022-09-10T12:54:27.161Z,1.85
2022-09-10T12:56:53.958Z,1.83
2022-09-10T12:59:51.702Z,1.95
2022-09-10T13:02:24.882Z,1.58
2022-09-10T13:04:58.801Z,1.42
2022-09-10T13:07:34.029Z,2.40
2022-09-10T13:10:08.056Z,2.00
2022-09-10T13:12:36.647Z,1.55
2022-09-10T13:15:04.991Z,7.13
2022-09-10T13:17:47.078Z,1.88
2022-09-10T13:20:23.644Z,1.88
2022-09-10T13:22:56.656Z,5.00
2022-09-10T13:25:36.789Z,1.95
2022-09-10T13:28:29.639Z,2.47
2022-09-10T13:30:59.414Z,2.80
2022-09-10T13:33:30.787Z,2.45
2022-09-10T13:36:30.818Z,2.53
2022-09-10T13:39:23.902Z,3.03
2022-09-10T13:42:15.510Z,2.40
2022-09-10T13:44:43.200Z,3.20
2022-09-10T13:47:15.198Z,7.65
2022-09-10T13:50:00.958Z,1.92
2022-09-10T13:52:31.053Z,1.83
2022-09-10T13:55:02.863Z,1.88
2022-09-10T13:57:45.327Z,6.30
2022-09-10T14:00:18.317Z,3.22
2022-09-10T14:02:47.697Z,2.55
2022-09-10T14:08:10.855Z,1.88
2022-09-10T14:11:00.078Z,3.50
2022-09-10T14:13:33.852Z,2.03
2022-09-10T14:16:03.769Z,2.38
2022-09-10T14:18:39.595Z,2.22
2022-09-10T14:21:06.900Z,2.50
2022-09-10T14:23:35.912Z,1.63
2022-09-10T14:26:23.737Z,4.50
2022-09-10T14:28:57.734Z,1.52
2022-09-10T14:31:27.422Z,4.15
2022-09-10T14:33:56.079Z,3.15
2022-09-10T14:36:29.481Z,3.30
2022-09-10T14:39:19.974Z,2.15
2022-09-10T14:41:47.723Z,1.88
2022-09-10T14:44:23.943Z,2.13
2022-09-10T14:46:57.748Z,1.48
2022-09-10T14:49:36.181Z,2.53
2022-09-10T14:52:03.857Z,2.63
2022-09-10T14:54:32.886Z,2.53
2022-09-10T14:57:13.382Z,2.65
2022-09-10T14:59:42.755Z,2.67
2022-09-10T15:02:28.785Z,6.05
2022-09-10T15:04:56.412Z,2.40
2022-09-10T15:07:23.860Z,4.05
2022-09-10T15:09:53.793Z,1.90
2022-09-10T15:12:30.226Z,2.08
2022-09-10T15:15:00.286Z,4.40
2022-09-10T15:17:27.268Z,1.92
2022-09-10T15:19:56.075Z,4.25
2022-09-10T15:22:28.145Z,2.25
2022-09-10T15:25:11.453Z,2.08
2022-09-10T15:27:38.736Z,3.55
2022-09-10T15:30:06.328Z,2.70
2022-09-10T15:32:33.169Z,4.90
2022-09-10T15:35:00.094Z,4.13
2022-09-10T15:37:27.270Z,2.85
2022-09-10T15:39:54.775Z,4.25
2022-09-10T15:42:21.806Z,3.58
2022-09-10T15:44:48.511Z,4.32
2022-09-10T15:47:15.257Z,3.72
2022-09-10T15:49:42.085Z,4.55
2022-09-10T15:52:10.100Z,2.70
2022-09-10T15:54:36.888Z,3.40
2022-09-10T15:57:03.869Z,1.42
2022-09-10T15:59:30.660Z,1.35
2022-09-10T16:01:57.528Z,2.30
2022-09-10T16:04:25.280Z,1.20
2022-09-10T16:06:52.186Z,4.07
2022-09-10T16:09:19.021Z,2.30
2022-09-10T16:11:48.557Z,1.45
2022-09-10T16:14:16.835Z,2.05
2022-09-10T16:16:43.639Z,1.27
2022-09-10T16:19:13.204Z,2.35
2022-09-10T16:24:08.163Z,3.28
2022-09-10T16:26:37.816Z,2.33
2022-09-10T16:29:26.099Z,1.38
2022-09-10T16:31:53.781Z,2.40
2022-09-10T16:34:22.299Z,4.03
2022-09-10T16:36:49.465Z,3.40
2022-09-10T16:39:17.116Z,2.72
2022-09-10T16:41:48.414Z,1.80
2022-09-10T16:44:17.825Z,2.15
2022-09-10T16:46:46.505Z,1.98
2022-09-10T16:49:14.046Z,1.55
2022-09-10T16:51:46.305Z,1.40
2022-09-10T16:54:14.263Z,1.45
2022-09-10T16:56:43.504Z,3.97
2022-09-10T16:59:15.269Z,6.93
2022-09-10T17:01:44.253Z,8.38
2022-09-10T17:04:32.650Z,5.03
2022-09-10T17:06:59.460Z,3.88
2022-09-10T17:09:26.861Z,4.00
2022-09-10T17:11:54.053Z,4.72
2022-09-10T17:14:20.807Z,2.03
2022-09-10T17:16:48.806Z,4.53
2022-09-10T17:19:21.489Z,3.22
2022-09-10T17:21:53.250Z,2.28
2022-09-10T17:24:22.953Z,3.50
2022-09-10T17:26:50.641Z,2.75
2022-09-10T17:29:20.617Z,2.17
2022-09-10T17:31:48.322Z,2.17
2022-09-10T17:34:16.503Z,2.50
2022-09-10T17:36:46.105Z,1.50
2022-09-10T17:41:40.543Z,1.63
2022-09-10T17:44:08.341Z,1.88
2022-09-10T17:46:36.463Z,3.63
2022-09-10T17:49:04.448Z,2.75
2022-09-10T17:51:34.147Z,2.05
2022-09-10T17:56:30.274Z,1.30
2022-09-10T17:58:59.361Z,1.85
2022-09-10T18:01:30.605Z,1.00
2022-09-10T18:03:57.729Z,4.88
2022-09-10T18:06:25.403Z,2.05
2022-09-10T18:08:53.027Z,2.17
2022-09-10T18:11:23.453Z,4.95
2022-09-10T18:13:52.556Z,3.92
2022-09-10T18:16:22.734Z,3.30
2022-09-10T18:18:55.884Z,3.17
2022-09-10T18:21:27.355Z,3.45
2022-09-10T18:24:05.374Z,1.88
2022-09-10T18:26:34.957Z,3.70
2022-09-10T18:29:11.667Z,3.22
2022-09-10T18:31:42.005Z,7.18
2022-09-10T18:34:11.254Z,1.42
2022-09-10T18:36:38.135Z,4.13
2022-09-10T18:39:07.182Z,1.50
2022-09-10T18:41:38.327Z,7.55
2022-09-10T18:44:08.397Z,2.85
2022-09-10T18:46:36.347Z,2.33
2022-09-10T18:49:04.800Z,2.67
2022-09-10T18:51:31.809Z,1.90
2022-09-10T18:54:01.289Z,1.90
2022-09-10T18:56:32.412Z,2.00
2022-09-10T18:59:05.045Z,1.90
2022-09-10T19:01:31.982Z,1.65
2022-09-10T19:03:59.255Z,1.95
2022-09-10T19:06:30.072Z,2.55
2022-09-10T19:09:04.892Z,2.03
2022-09-10T19:11:42.811Z,9.98
2022-09-10T19:14:39.310Z,2.75
2022-09-10T19:17:06.190Z,3.58
2022-09-10T19:19:35.340Z,4.38
2022-09-10T19:22:06.379Z,4.40
2022-09-10T19:27:21.321Z,3.35
2022-09-10T19:29:49.887Z,5.38
2022-09-10T19:32:17.251Z,2.33
2022-09-10T19:34:44.610Z,2.97
2022-09-10T19:37:11.397Z,4.13
2022-09-10T19:39:38.525Z,3.78
2022-09-10T19:42:07.020Z,2.85
2022-09-10T19:44:33.859Z,3.70
2022-09-10T19:47:00.784Z,5.63
2022-09-10T19:49:27.833Z,5.43
2022-09-10T19:51:54.652Z,4.32
2022-09-10T19:57:43.114Z,8.20
2022-09-10T20:00:24.787Z,5.25
2022-09-10T20:02:57.714Z,5.95
2022-09-10T20:05:25.446Z,7.93
2022-09-10T20:07:52.329Z,6.78
2022-09-10T20:10:19.748Z,6.80
2022-09-10T20:12:46.602Z,5.22
2022-09-10T20:15:13.577Z,7.78
2022-09-10T20:17:40.555Z,5.97
2022-09-10T20:20:07.724Z,9.20
2022-09-10T20:22:38.211Z,5.38
2022-09-10T20:25:06.224Z,5.95
2022-09-10T20:27:33.353Z,11.00
2022-09-10T20:30:00.886Z,6.35
2022-09-10T20:32:27.968Z,6.10
2022-09-10T20:34:56.516Z,7.78
2022-09-10T20:37:25.002Z,8.57
2022-09-10T20:39:53.441Z,6.00
2022-09-10T20:42:20.328Z,6.43
2022-09-10T20:44:47.170Z,7.07
2022-09-10T20:47:14.268Z,7.28
2022-09-10T20:49:41.055Z,10.02
2022-09-10T20:52:07.757Z,10.55
2022-09-10T20:54:34.881Z,9.82
2022-09-10T20:57:02.359Z,8.25
2022-09-10T20:59:30.648Z,6.80
2022-09-10T21:01:57.825Z,10.00
2022-09-10T21:04:24.710Z,10.43
2022-09-10T21:06:51.453Z,8.13
2022-09-10T21:09:18.356Z,11.50
2022-09-10T21:11:45.310Z,10.40
2022-09-10T21:14:12.394Z,16.40
2022-09-10T21:16:41.642Z,11.15
2022-09-10T21:19:14.382Z,11.68
2022-09-10T21:21:45.077Z,13.98
2022-09-10T21:24:29.815Z,15.57
2022-09-10T21:26:57.014Z,13.73
2022-09-10T21:29:23.913Z,8.35
2022-09-10T21:31:50.872Z,12.63
2022-09-10T21:34:18.105Z,15.65
2022-09-10T21:36:45.414Z,9.65
2022-09-10T21:39:17.576Z,8.65
2022-09-10T21:41:47.451Z,12.45
2022-09-10T21:46:44.055Z,9.85
2022-09-10T21:49:11.554Z,13.77
2022-09-10T21:51:38.665Z,7.50
2022-09-10T21:54:05.851Z,9.98
2022-09-10T21:56:33.657Z,9.70
2022-09-10T21:59:01.334Z,8.02
2022-09-10T22:01:30.929Z,12.57
2022-09-10T22:04:01.271Z,11.57
2022-09-10T22:06:30.938Z,16.75
2022-09-10T22:09:00.380Z,12.13
2022-09-10T22:11:39.524Z,14.65
2022-09-10T22:14:12.142Z,10.20
2022-09-10T22:16:39.180Z,16.67
2022-09-10T22:19:11.967Z,13.70
2022-09-10T22:21:38.805Z,16.50
2022-09-10T22:24:06.564Z,14.80
2022-09-10T22:26:34.256Z,17.67
2022-09-10T22:29:02.699Z,16.17
2022-09-10T22:31:34.734Z,12.60
2022-09-10T22:34:04.801Z,14.85
2022-09-10T22:36:34.163Z,13.85
2022-09-10T22:39:03.590Z,15.32
2022-09-10T22:41:34.188Z,12.10
2022-09-10T22:44:02.306Z,12.10
2022-09-10T22:46:30.238Z,13.57
2022-09-10T22:48:57.633Z,15.57
2022-09-10T22:51:27.996Z,9.10
2022-09-10T22:53:56.084Z,13.40
2022-09-10T22:56:28.572Z,14.82
2022-09-10T22:58:57.373Z,11.68
2022-09-10T23:01:27.844Z,25.25
2022-09-10T23:03:59.441Z,11.65
2022-09-10T23:06:28.402Z,11.15
2022-09-10T23:08:57.670Z,11.07
2022-09-10T23:11:28.213Z,12.55
2022-09-10T23:13:57.656Z,12.63
2022-09-10T23:16:48.035Z,21.95
2022-09-10T23:19:17.631Z,13.63
2022-09-10T23:21:46.801Z,14.18
2022-09-10T23:24:17.196Z,14.50
2022-09-10T23:26:45.132Z,13.05
2022-09-10T23:29:12.853Z,18.27
2022-09-10T23:31:41.220Z,19.13
2022-09-10T23:34:16.826Z,14.63
2022-09-10T23:36:45.441Z,16.88
2022-09-10T23:39:20.358Z,20.65
2022-09-10T23:41:48.672Z,18.15
2022-09-10T23:44:15.780Z,15.68
2022-09-10T23:46:42.770Z,13.95
2022-09-10T23:49:09.874Z,13.75
2022-09-10T23:51:37.204Z,12.23
2022-09-10T23:54:04.538Z,14.85
2022-09-10T23:56:32.183Z,20.23
2022-09-10T23:59:03.667Z,15.90
